sensor_id;sensor_type;location;lat;lon;timestamp;P1;durP1;ratioP1;P2;durP2;ratioP2
16531;SDS011;66872;63.142;14.482;2023-06-14T00:00:19;2.90;;;2.70;;
16531;SDS011;66872;63.142;14.482;2023-06-14T00:02:45;3.08;;;2.78;;
16531;SDS011;66872;63.142;14.482;2023-06-14T00:05:11;2.80;;;2.60;;
16531;SDS011;66872;63.142;14.482;2023-06-14T00:07:41;3.13;;;2.83;;
16531;SDS011;66872;63.142;14.482;2023-06-14T00:10:14;3.38;;;2.90;;
16531;SDS011;66872;63.142;14.482;2023-06-14T00:12:40;2.85;;;2.65;;
16531;SDS011;66872;63.142;14.482;2023-06-14T00:15:06;3.33;;;3.03;;
16531;SDS011;66872;63.142;14.482;2023-06-14T00:17:34;3.33;;;3.03;;
16531;SDS011;66872;63.142;14.482;2023-06-14T00:20:01;3.55;;;2.80;;
16531;SDS011;66872;63.142;14.482;2023-06-14T00:22:30;3.22;;;2.92;;
16531;SDS011;66872;63.142;14.482;2023-06-14T00:24:57;3.40;;;2.95;;
16531;SDS011;66872;63.142;14.482;2023-06-14T00:27:22;3.30;;;3.05;;
16531;SDS011;66872;63.142;14.482;2023-06-14T00:29:48;3.30;;;3.00;;
16531;SDS011;66872;63.142;14.482;2023-06-14T00:32:14;3.00;;;2.80;;
16531;SDS011;66872;63.142;14.482;2023-06-14T00:34:40;3.00;;;2.80;;
16531;SDS011;66872;63.142;14.482;2023-06-14T00:37:05;2.80;;;2.60;;
16531;SDS011;66872;63.142;14.482;2023-06-14T00:39:31;3.40;;;3.10;;
16531;SDS011;66872;63.142;14.482;2023-06-14T00:41:57;3.40;;;3.10;;
16531;SDS011;66872;63.142;14.482;2023-06-14T00:44:24;3.42;;;3.13;;
16531;SDS011;66872;63.142;14.482;2023-06-14T00:46:50;3.00;;;2.70;;
16531;SDS011;66872;63.142;14.482;2023-06-14T00:49:16;3.10;;;2.80;;
16531;SDS011;66872;63.142;14.482;2023-06-14T00:51:44;3.08;;;2.88;;
16531;SDS011;66872;63.142;14.482;2023-06-14T00:54:10;3.20;;;2.92;;
16531;SDS011;66872;63.142;14.482;2023-06-14T00:56:36;3.10;;;2.75;;
16531;SDS011;66872;63.142;14.482;2023-06-14T00:59:02;3.35;;;2.80;;
16531;SDS011;66872;63.142;14.482;2023-06-14T01:01:28;3.15;;;2.85;;
16531;SDS011;66872;63.142;14.482;2023-06-14T01:03:58;2.90;;;2.70;;
16531;SDS011;66872;63.142;14.482;2023-06-14T01:15:01;3.20;;;2.90;;
16531;SDS011;66872;63.142;14.482;2023-06-14T01:17:28;3.28;;;2.97;;
16531;SDS011;66872;63.142;14.482;2023-06-14T01:20:06;2.92;;;2.72;;
16531;SDS011;66872;63.142;14.482;2023-06-14T01:22:35;2.80;;;2.60;;
16531;SDS011;66872;63.142;14.482;2023-06-14T01:25:01;3.13;;;2.80;;
16531;SDS011;66872;63.142;14.482;2023-06-14T01:27:26;3.78;;;3.30;;
16531;SDS011;66872;63.142;14.482;2023-06-14T01:29:57;3.10;;;2.80;;
16531;SDS011;66872;63.142;14.482;2023-06-14T01:32:25;2.85;;;2.65;;
16531;SDS011;66872;63.142;14.482;2023-06-14T01:34:51;3.00;;;2.80;;
16531;SDS011;66872;63.142;14.482;2023-06-14T01:37:17;3.00;;;2.75;;
16531;SDS011;66872;63.142;14.482;2023-06-14T01:39:45;3.00;;;2.70;;
16531;SDS011;66872;63.142;14.482;2023-06-14T01:42:12;2.92;;;2.53;;
16531;SDS011;66872;63.142;14.482;2023-06-14T01:44:38;2.78;;;2.58;;
16531;SDS011;66872;63.142;14.482;2023-06-14T01:47:06;3.22;;;2.92;;
16531;SDS011;66872;63.142;14.482;2023-06-14T01:49:35;3.17;;;2.88;;
16531;SDS011;66872;63.142;14.482;2023-06-14T01:52:00;3.30;;;2.97;;
16531;SDS011;66872;63.142;14.482;2023-06-14T01:54:26;3.30;;;2.80;;
16531;SDS011;66872;63.142;14.482;2023-06-14T01:56:52;2.72;;;2.53;;
16531;SDS011;66872;63.142;14.482;2023-06-14T01:59:18;3.25;;;3.03;;
16531;SDS011;66872;63.142;14.482;2023-06-14T02:01:44;2.92;;;2.72;;
16531;SDS011;66872;63.142;14.482;2023-06-14T02:04:11;3.13;;;2.83;;
16531;SDS011;66872;63.142;14.482;2023-06-14T02:06:36;2.97;;;2.67;;
16531;SDS011;66872;63.142;14.482;2023-06-14T02:09:02;2.75;;;2.55;;
16531;SDS011;66872;63.142;14.482;2023-06-14T02:11:29;2.80;;;2.60;;
16531;SDS011;66872;63.142;14.482;2023-06-14T02:13:54;3.25;;;2.95;;
16531;SDS011;66872;63.142;14.482;2023-06-14T02:16:20;2.95;;;2.75;;
16531;SDS011;66872;63.142;14.482;2023-06-14T02:18:47;2.90;;;2.70;;
16531;SDS011;66872;63.142;14.482;2023-06-14T02:21:13;4.63;;;2.80;;
16531;SDS011;66872;63.142;14.482;2023-06-14T02:23:39;2.85;;;2.65;;
16531;SDS011;66872;63.142;14.482;2023-06-14T02:26:05;3.00;;;2.80;;
16531;SDS011;66872;63.142;14.482;2023-06-14T02:28:30;2.83;;;2.63;;
16531;SDS011;66872;63.142;14.482;2023-06-14T02:30:56;3.08;;;2.78;;
16531;SDS011;66872;63.142;14.482;2023-06-14T02:33:22;2.97;;;2.78;;
16531;SDS011;66872;63.142;14.482;2023-06-14T02:35:47;2.80;;;2.60;;
16531;SDS011;66872;63.142;14.482;2023-06-14T02:38:13;3.03;;;2.83;;
16531;SDS011;66872;63.142;14.482;2023-06-14T02:40:39;2.80;;;2.60;;
16531;SDS011;66872;63.142;14.482;2023-06-14T02:43:07;2.58;;;2.38;;
16531;SDS011;66872;63.142;14.482;2023-06-14T02:45:33;3.22;;;2.92;;
16531;SDS011;66872;63.142;14.482;2023-06-14T02:47:59;3.17;;;2.88;;
16531;SDS011;66872;63.142;14.482;2023-06-14T02:50:25;2.90;;;2.70;;
16531;SDS011;66872;63.142;14.482;2023-06-14T02:52:53;2.92;;;2.63;;
16531;SDS011;66872;63.142;14.482;2023-06-14T02:55:20;2.80;;;2.60;;
16531;SDS011;66872;63.142;14.482;2023-06-14T02:57:46;3.22;;;2.92;;
16531;SDS011;66872;63.142;14.482;2023-06-14T03:00:13;2.65;;;2.45;;
16531;SDS011;66872;63.142;14.482;2023-06-14T03:02:39;3.03;;;2.72;;
16531;SDS011;66872;63.142;14.482;2023-06-14T03:05:05;2.58;;;2.38;;
16531;SDS011;66872;63.142;14.482;2023-06-14T03:07:32;3.40;;;3.10;;
16531;SDS011;66872;63.142;14.482;2023-06-14T03:09:57;3.03;;;2.72;;
16531;SDS011;66872;63.142;14.482;2023-06-14T03:12:23;2.88;;;2.67;;
16531;SDS011;66872;63.142;14.482;2023-06-14T03:14:49;2.80;;;2.60;;
16531;SDS011;66872;63.142;14.482;2023-06-14T03:17:16;3.00;;;2.80;;
16531;SDS011;66872;63.142;14.482;2023-06-14T03:19:42;3.25;;;2.83;;
16531;SDS011;66872;63.142;14.482;2023-06-14T03:22:08;2.92;;;2.65;;
16531;SDS011;66872;63.142;14.482;2023-06-14T03:24:36;2.80;;;2.60;;
16531;SDS011;66872;63.142;14.482;2023-06-14T03:27:02;3.05;;;2.72;;
16531;SDS011;66872;63.142;14.482;2023-06-14T03:29:28;2.97;;;2.78;;
16531;SDS011;66872;63.142;14.482;2023-06-14T03:31:58;2.95;;;2.75;;
16531;SDS011;66872;63.142;14.482;2023-06-14T03:34:28;2.75;;;2.55;;
16531;SDS011;66872;63.142;14.482;2023-06-14T03:36:54;3.13;;;2.83;;
16531;SDS011;66872;63.142;14.482;2023-06-14T03:39:19;2.85;;;2.58;;
16531;SDS011;66872;63.142;14.482;2023-06-14T03:41:45;3.00;;;2.70;;
16531;SDS011;66872;63.142;14.482;2023-06-14T03:44:11;3.13;;;2.67;;
16531;SDS011;66872;63.142;14.482;2023-06-14T03:46:38;3.08;;;2.78;;
16531;SDS011;66872;63.142;14.482;2023-06-14T03:49:04;2.80;;;2.60;;
16531;SDS011;66872;63.142;14.482;2023-06-14T03:51:30;2.90;;;2.70;;
16531;SDS011;66872;63.142;14.482;2023-06-14T03:53:56;2.95;;;2.75;;
16531;SDS011;66872;63.142;14.482;2023-06-14T03:56:21;2.92;;;2.72;;
16531;SDS011;66872;63.142;14.482;2023-06-14T03:58:47;2.50;;;2.30;;
16531;SDS011;66872;63.142;14.482;2023-06-14T04:01:13;3.38;;;2.60;;
16531;SDS011;66872;63.142;14.482;2023-06-14T04:03:39;2.92;;;2.55;;
16531;SDS011;66872;63.142;14.482;2023-06-14T04:06:05;2.88;;;2.60;;
16531;SDS011;66872;63.142;14.482;2023-06-14T04:08:31;2.85;;;2.55;;
16531;SDS011;66872;63.142;14.482;2023-06-14T04:10:57;2.90;;;2.70;;
16531;SDS011;66872;63.142;14.482;2023-06-14T04:13:23;2.97;;;2.78;;
16531;SDS011;66872;63.142;14.482;2023-06-14T04:15:48;2.67;;;2.47;;
16531;SDS011;66872;63.142;14.482;2023-06-14T04:18:14;3.03;;;2.83;;
16531;SDS011;66872;63.142;14.482;2023-06-14T04:20:40;2.55;;;2.35;;
16531;SDS011;66872;63.142;14.482;2023-06-14T04:23:16;2.88;;;2.60;;
16531;SDS011;66872;63.142;14.482;2023-06-14T04:25:46;2.97;;;2.78;;
16531;SDS011;66872;63.142;14.482;2023-06-14T04:28:12;3.15;;;2.85;;
16531;SDS011;66872;63.142;14.482;2023-06-14T04:30:42;2.60;;;2.40;;
16531;SDS011;66872;63.142;14.482;2023-06-14T04:33:08;2.95;;;2.70;;
16531;SDS011;66872;63.142;14.482;2023-06-14T04:35:35;2.85;;;2.65;;
16531;SDS011;66872;63.142;14.482;2023-06-14T04:38:02;2.70;;;2.50;;
16531;SDS011;66872;63.142;14.482;2023-06-14T04:40:38;2.70;;;2.50;;
16531;SDS011;66872;63.142;14.482;2023-06-14T04:43:10;3.00;;;2.70;;
16531;SDS011;66872;63.142;14.482;2023-06-14T04:45:37;2.70;;;2.50;;
16531;SDS011;66872;63.142;14.482;2023-06-14T04:48:04;2.70;;;2.50;;
16531;SDS011;66872;63.142;14.482;2023-06-14T04:50:31;2.80;;;2.60;;
16531;SDS011;66872;63.142;14.482;2023-06-14T04:52:58;2.72;;;2.53;;
16531;SDS011;66872;63.142;14.482;2023-06-14T04:55:24;2.80;;;2.60;;
16531;SDS011;66872;63.142;14.482;2023-06-14T04:57:51;3.03;;;2.72;;
16531;SDS011;66872;63.142;14.482;2023-06-14T05:00:18;2.65;;;2.45;;
16531;SDS011;66872;63.142;14.482;2023-06-14T05:02:45;2.95;;;2.70;;
16531;SDS011;66872;63.142;14.482;2023-06-14T05:05:12;2.67;;;2.47;;
16531;SDS011;66872;63.142;14.482;2023-06-14T05:07:38;2.47;;;2.28;;
16531;SDS011;66872;63.142;14.482;2023-06-14T05:10:04;3.20;;;2.90;;
16531;SDS011;66872;63.142;14.482;2023-06-14T05:12:31;2.85;;;2.65;;
16531;SDS011;66872;63.142;14.482;2023-06-14T05:14:56;2.60;;;2.40;;
16531;SDS011;66872;63.142;14.482;2023-06-14T05:17:23;3.03;;;2.72;;
16531;SDS011;66872;63.142;14.482;2023-06-14T05:19:49;3.00;;;2.70;;
16531;SDS011;66872;63.142;14.482;2023-06-14T05:22:15;2.80;;;2.60;;
16531;SDS011;66872;63.142;14.482;2023-06-14T05:24:41;2.80;;;2.60;;
16531;SDS011;66872;63.142;14.482;2023-06-14T05:27:07;2.78;;;2.58;;
16531;SDS011;66872;63.142;14.482;2023-06-14T05:29:33;3.75;;;3.03;;
16531;SDS011;66872;63.142;14.482;2023-06-14T05:31:58;2.72;;;2.53;;
16531;SDS011;66872;63.142;14.482;2023-06-14T05:34:25;2.70;;;2.50;;
16531;SDS011;66872;63.142;14.482;2023-06-14T05:36:50;2.70;;;2.50;;
16531;SDS011;66872;63.142;14.482;2023-06-14T05:39:16;2.70;;;2.50;;
16531;SDS011;66872;63.142;14.482;2023-06-14T05:41:42;2.85;;;2.63;;
16531;SDS011;66872;63.142;14.482;2023-06-14T05:44:07;2.65;;;2.45;;
16531;SDS011;66872;63.142;14.482;2023-06-14T05:46:33;2.63;;;2.42;;
16531;SDS011;66872;63.142;14.482;2023-06-14T05:48:59;2.50;;;2.30;;
16531;SDS011;66872;63.142;14.482;2023-06-14T05:51:25;2.70;;;2.50;;
16531;SDS011;66872;63.142;14.482;2023-06-14T05:53:51;2.70;;;2.50;;
16531;SDS011;66872;63.142;14.482;2023-06-14T05:56:17;2.60;;;2.40;;
16531;SDS011;66872;63.142;14.482;2023-06-14T05:58:43;2.42;;;2.22;;
16531;SDS011;66872;63.142;14.482;2023-06-14T06:01:09;2.80;;;2.60;;
16531;SDS011;66872;63.142;14.482;2023-06-14T06:03:36;2.80;;;2.60;;
16531;SDS011;66872;63.142;14.482;2023-06-14T06:06:02;2.60;;;2.40;;
16531;SDS011;66872;63.142;14.482;2023-06-14T06:08:28;3.53;;;2.58;;
16531;SDS011;66872;63.142;14.482;2023-06-14T06:10:54;2.50;;;2.30;;
16531;SDS011;66872;63.142;14.482;2023-06-14T06:13:21;2.63;;;2.42;;
16531;SDS011;66872;63.142;14.482;2023-06-14T06:15:46;2.90;;;2.70;;
16531;SDS011;66872;63.142;14.482;2023-06-14T06:18:12;2.80;;;2.60;;
16531;SDS011;66872;63.142;14.482;2023-06-14T06:20:38;2.70;;;2.50;;
16531;SDS011;66872;63.142;14.482;2023-06-14T06:23:03;2.97;;;2.67;;
16531;SDS011;66872;63.142;14.482;2023-06-14T06:25:29;2.60;;;2.40;;
16531;SDS011;66872;63.142;14.482;2023-06-14T06:27:57;2.75;;;2.55;;
16531;SDS011;66872;63.142;14.482;2023-06-14T06:30:22;2.78;;;2.58;;
16531;SDS011;66872;63.142;14.482;2023-06-14T06:32:49;2.80;;;2.60;;
16531;SDS011;66872;63.142;14.482;2023-06-14T06:35:15;2.65;;;2.45;;
16531;SDS011;66872;63.142;14.482;2023-06-14T06:37:41;2.72;;;2.53;;
16531;SDS011;66872;63.142;14.482;2023-06-14T06:40:07;2.60;;;2.40;;
16531;SDS011;66872;63.142;14.482;2023-06-14T06:42:34;2.60;;;2.40;;
16531;SDS011;66872;63.142;14.482;2023-06-14T06:45:00;2.80;;;2.60;;
16531;SDS011;66872;63.142;14.482;2023-06-14T06:47:26;2.70;;;2.50;;
16531;SDS011;66872;63.142;14.482;2023-06-14T06:49:51;2.65;;;2.45;;
16531;SDS011;66872;63.142;14.482;2023-06-14T06:52:17;2.80;;;2.60;;
16531;SDS011;66872;63.142;14.482;2023-06-14T06:54:43;2.70;;;2.50;;
16531;SDS011;66872;63.142;14.482;2023-06-14T06:57:08;2.70;;;2.50;;
16531;SDS011;66872;63.142;14.482;2023-06-14T06:59:35;2.72;;;2.45;;
16531;SDS011;66872;63.142;14.482;2023-06-14T07:02:01;2.92;;;2.72;;
16531;SDS011;66872;63.142;14.482;2023-06-14T07:04:27;2.78;;;2.58;;
16531;SDS011;66872;63.142;14.482;2023-06-14T07:06:53;3.00;;;2.80;;
16531;SDS011;66872;63.142;14.482;2023-06-14T07:09:18;2.78;;;2.58;;
16531;SDS011;66872;63.142;14.482;2023-06-14T07:11:46;2.70;;;2.50;;
16531;SDS011;66872;63.142;14.482;2023-06-14T07:14:12;2.50;;;2.30;;
16531;SDS011;66872;63.142;14.482;2023-06-14T07:16:38;2.22;;;2.10;;
16531;SDS011;66872;63.142;14.482;2023-06-14T07:19:04;2.53;;;2.33;;
16531;SDS011;66872;63.142;14.482;2023-06-14T07:21:30;2.75;;;2.55;;
16531;SDS011;66872;63.142;14.482;2023-06-14T07:23:56;2.70;;;2.50;;
16531;SDS011;66872;63.142;14.482;2023-06-14T07:26:22;3.10;;;2.75;;
16531;SDS011;66872;63.142;14.482;2023-06-14T07:28:48;2.60;;;2.40;;
16531;SDS011;66872;63.142;14.482;2023-06-14T07:31:15;2.50;;;2.30;;
16531;SDS011;66872;63.142;14.482;2023-06-14T07:33:41;2.40;;;2.20;;
16531;SDS011;66872;63.142;14.482;2023-06-14T07:36:07;2.53;;;2.33;;
16531;SDS011;66872;63.142;14.482;2023-06-14T07:38:33;2.55;;;2.35;;
16531;SDS011;66872;63.142;14.482;2023-06-14T07:40:59;2.58;;;2.38;;
16531;SDS011;66872;63.142;14.482;2023-06-14T07:43:25;2.63;;;2.42;;
16531;SDS011;66872;63.142;14.482;2023-06-14T07:45:51;2.33;;;2.13;;
16531;SDS011;66872;63.142;14.482;2023-06-14T07:48:17;2.45;;;2.25;;
16531;SDS011;66872;63.142;14.482;2023-06-14T07:50:43;2.58;;;2.38;;
16531;SDS011;66872;63.142;14.482;2023-06-14T07:53:09;2.70;;;2.50;;
16531;SDS011;66872;63.142;14.482;2023-06-14T07:55:35;2.63;;;2.42;;
16531;SDS011;66872;63.142;14.482;2023-06-14T07:58:04;2.42;;;2.22;;
16531;SDS011;66872;63.142;14.482;2023-06-14T08:00:33;2.60;;;2.40;;
16531;SDS011;66872;63.142;14.482;2023-06-14T08:02:59;2.65;;;2.45;;
16531;SDS011;66872;63.142;14.482;2023-06-14T08:05:25;2.50;;;2.30;;
16531;SDS011;66872;63.142;14.482;2023-06-14T08:07:51;2.22;;;2.10;;
16531;SDS011;66872;63.142;14.482;2023-06-14T08:10:17;2.50;;;2.30;;
16531;SDS011;66872;63.142;14.482;2023-06-14T08:12:43;2.60;;;2.40;;
16531;SDS011;66872;63.142;14.482;2023-06-14T08:15:09;2.42;;;2.22;;
16531;SDS011;66872;63.142;14.482;2023-06-14T08:17:35;2.50;;;2.30;;
16531;SDS011;66872;63.142;14.482;2023-06-14T08:20:01;2.65;;;2.45;;
16531;SDS011;66872;63.142;14.482;2023-06-14T08:22:28;2.80;;;2.60;;
16531;SDS011;66872;63.142;14.482;2023-06-14T08:24:57;2.55;;;2.35;;
16531;SDS011;66872;63.142;14.482;2023-06-14T08:27:23;2.53;;;2.33;;
16531;SDS011;66872;63.142;14.482;2023-06-14T08:29:49;2.60;;;2.40;;
16531;SDS011;66872;63.142;14.482;2023-06-14T08:32:15;2.80;;;2.60;;
16531;SDS011;66872;63.142;14.482;2023-06-14T08:34:40;2.65;;;2.45;;
16531;SDS011;66872;63.142;14.482;2023-06-14T08:37:06;2.63;;;2.42;;
16531;SDS011;66872;63.142;14.482;2023-06-14T08:39:32;2.70;;;2.50;;
16531;SDS011;66872;63.142;14.482;2023-06-14T08:41:58;2.60;;;2.40;;
16531;SDS011;66872;63.142;14.482;2023-06-14T08:44:28;2.70;;;2.50;;
16531;SDS011;66872;63.142;14.482;2023-06-14T08:46:55;2.45;;;2.25;;
16531;SDS011;66872;63.142;14.482;2023-06-14T08:49:24;2.42;;;2.30;;
16531;SDS011;66872;63.142;14.482;2023-06-14T08:51:55;2.50;;;2.30;;
16531;SDS011;66872;63.142;14.482;2023-06-14T08:54:22;2.70;;;2.50;;
16531;SDS011;66872;63.142;14.482;2023-06-14T08:56:52;2.65;;;2.45;;
16531;SDS011;66872;63.142;14.482;2023-06-14T08:59:22;2.60;;;2.40;;
16531;SDS011;66872;63.142;14.482;2023-06-14T09:01:50;2.92;;;2.67;;
16531;SDS011;66872;63.142;14.482;2023-06-14T09:04:17;2.70;;;2.50;;
16531;SDS011;66872;63.142;14.482;2023-06-14T09:06:44;2.50;;;2.30;;
16531;SDS011;66872;63.142;14.482;2023-06-14T09:09:10;2.45;;;2.25;;
16531;SDS011;66872;63.142;14.482;2023-06-14T09:11:37;2.47;;;2.28;;
16531;SDS011;66872;63.142;14.482;2023-06-14T09:14:03;2.50;;;2.30;;
16531;SDS011;66872;63.142;14.482;2023-06-14T09:16:31;2.50;;;2.30;;
16531;SDS011;66872;63.142;14.482;2023-06-14T09:18:58;2.50;;;2.30;;
16531;SDS011;66872;63.142;14.482;2023-06-14T09:21:24;2.60;;;2.40;;
16531;SDS011;66872;63.142;14.482;2023-06-14T09:23:49;2.50;;;2.30;;
16531;SDS011;66872;63.142;14.482;2023-06-14T09:26:18;2.55;;;2.35;;
16531;SDS011;66872;63.142;14.482;2023-06-14T09:28:48;2.70;;;2.50;;
16531;SDS011;66872;63.142;14.482;2023-06-14T09:31:19;2.75;;;2.55;;
16531;SDS011;66872;63.142;14.482;2023-06-14T09:33:46;2.60;;;2.40;;
16531;SDS011;66872;63.142;14.482;2023-06-14T09:36:22;2.65;;;2.45;;
16531;SDS011;66872;63.142;14.482;2023-06-14T09:38:53;2.60;;;2.40;;
16531;SDS011;66872;63.142;14.482;2023-06-14T09:41:21;2.70;;;2.50;;
16531;SDS011;66872;63.142;14.482;2023-06-14T09:43:59;2.85;;;2.60;;
16531;SDS011;66872;63.142;14.482;2023-06-14T09:46:27;2.45;;;2.25;;
16531;SDS011;66872;63.142;14.482;2023-06-14T09:48:54;2.80;;;2.60;;
16531;SDS011;66872;63.142;14.482;2023-06-14T09:51:21;2.70;;;2.50;;
16531;SDS011;66872;63.142;14.482;2023-06-14T09:53:48;2.53;;;2.33;;
16531;SDS011;66872;63.142;14.482;2023-06-14T09:58:55;2.60;;;2.40;;
16531;SDS011;66872;63.142;14.482;2023-06-14T10:01:26;2.83;;;2.63;;
16531;SDS011;66872;63.142;14.482;2023-06-14T10:03:55;2.70;;;2.50;;
16531;SDS011;66872;63.142;14.482;2023-06-14T10:06:31;2.72;;;2.53;;
16531;SDS011;66872;63.142;14.482;2023-06-14T10:09:01;2.70;;;2.50;;
16531;SDS011;66872;63.142;14.482;2023-06-14T10:11:30;2.58;;;2.38;;
16531;SDS011;66872;63.142;14.482;2023-06-14T10:13:57;2.85;;;2.63;;
16531;SDS011;66872;63.142;14.482;2023-06-14T10:24:42;3.00;;;2.80;;
16531;SDS011;66872;63.142;14.482;2023-06-14T10:27:08;3.00;;;2.60;;
16531;SDS011;66872;63.142;14.482;2023-06-14T10:30:01;3.22;;;2.70;;
16531;SDS011;66872;63.142;14.482;2023-06-14T10:32:28;2.72;;;2.53;;
16531;SDS011;66872;63.142;14.482;2023-06-14T10:34:55;2.97;;;2.78;;
16531;SDS011;66872;63.142;14.482;2023-06-14T10:37:22;2.88;;;2.67;;
16531;SDS011;66872;63.142;14.482;2023-06-14T10:39:49;2.90;;;2.70;;
16531;SDS011;66872;63.142;14.482;2023-06-14T10:42:15;2.80;;;2.60;;
16531;SDS011;66872;63.142;14.482;2023-06-14T10:44:45;3.03;;;2.70;;
16531;SDS011;66872;63.142;14.482;2023-06-14T10:49:51;2.88;;;2.58;;
16531;SDS011;66872;63.142;14.482;2023-06-14T10:52:23;2.85;;;2.65;;
16531;SDS011;66872;63.142;14.482;2023-06-14T10:55:11;2.80;;;2.50;;
16531;SDS011;66872;63.142;14.482;2023-06-14T10:57:46;3.03;;;2.72;;
16531;SDS011;66872;63.142;14.482;2023-06-14T11:00:16;2.90;;;2.70;;
16531;SDS011;66872;63.142;14.482;2023-06-14T11:05:53;3.10;;;2.90;;
16531;SDS011;66872;63.142;14.482;2023-06-14T11:11:10;2.85;;;2.65;;
16531;SDS011;66872;63.142;14.482;2023-06-14T11:13:41;3.17;;;2.97;;
16531;SDS011;66872;63.142;14.482;2023-06-14T11:16:12;3.00;;;2.80;;
16531;SDS011;66872;63.142;14.482;2023-06-14T11:18:39;3.15;;;2.60;;
16531;SDS011;66872;63.142;14.482;2023-06-14T11:21:06;3.28;;;2.97;;
16531;SDS011;66872;63.142;14.482;2023-06-14T11:23:31;3.10;;;2.90;;
16531;SDS011;66872;63.142;14.482;2023-06-14T11:25:57;3.28;;;2.97;;
16531;SDS011;66872;63.142;14.482;2023-06-14T11:28:23;3.33;;;2.90;;
16531;SDS011;66872;63.142;14.482;2023-06-14T11:31:01;2.60;;;2.40;;
16531;SDS011;66872;63.142;14.482;2023-06-14T11:33:28;3.10;;;2.90;;
16531;SDS011;66872;63.142;14.482;2023-06-14T11:35:54;3.00;;;2.80;;
16531;SDS011;66872;63.142;14.482;2023-06-14T11:38:20;3.00;;;2.80;;
16531;SDS011;66872;63.142;14.482;2023-06-14T11:40:45;3.25;;;3.00;;
16531;SDS011;66872;63.142;14.482;2023-06-14T11:43:11;3.65;;;2.97;;
16531;SDS011;66872;63.142;14.482;2023-06-14T11:45:38;3.30;;;3.10;;
16531;SDS011;66872;63.142;14.482;2023-06-14T11:48:04;3.30;;;3.00;;
16531;SDS011;66872;63.142;14.482;2023-06-14T11:50:31;3.40;;;3.10;;
16531;SDS011;66872;63.142;14.482;2023-06-14T11:53:01;2.90;;;2.70;;
16531;SDS011;66872;63.142;14.482;2023-06-14T11:55:41;3.70;;;3.40;;
16531;SDS011;66872;63.142;14.482;2023-06-14T11:58:10;3.33;;;3.13;;
16531;SDS011;66872;63.142;14.482;2023-06-14T12:00:36;3.03;;;2.83;;
16531;SDS011;66872;63.142;14.482;2023-06-14T12:03:02;3.50;;;3.20;;
16531;SDS011;66872;63.142;14.482;2023-06-14T12:05:28;3.35;;;3.05;;
16531;SDS011;66872;63.142;14.482;2023-06-14T12:08:01;3.10;;;2.90;;
16531;SDS011;66872;63.142;14.482;2023-06-14T12:10:28;3.10;;;2.90;;
16531;SDS011;66872;63.142;14.482;2023-06-14T12:12:58;3.50;;;3.20;;
16531;SDS011;66872;63.142;14.482;2023-06-14T12:15:24;3.78;;;3.47;;
16531;SDS011;66872;63.142;14.482;2023-06-14T12:17:53;3.60;;;3.30;;
16531;SDS011;66872;63.142;14.482;2023-06-14T12:20:19;3.15;;;2.95;;
16531;SDS011;66872;63.142;14.482;2023-06-14T12:22:50;3.00;;;2.80;;
16531;SDS011;66872;63.142;14.482;2023-06-14T12:25:28;3.70;;;3.40;;
16531;SDS011;66872;63.142;14.482;2023-06-14T12:27:58;3.30;;;3.00;;
16531;SDS011;66872;63.142;14.482;2023-06-14T12:30:24;3.40;;;3.10;;
16531;SDS011;66872;63.142;14.482;2023-06-14T12:32:50;3.72;;;3.42;;
16531;SDS011;66872;63.142;14.482;2023-06-14T12:35:19;3.50;;;3.20;;
16531;SDS011;66872;63.142;14.482;2023-06-14T12:37:45;3.70;;;3.40;;
16531;SDS011;66872;63.142;14.482;2023-06-14T12:40:11;3.90;;;3.60;;
16531;SDS011;66872;63.142;14.482;2023-06-14T12:42:37;3.95;;;3.65;;
16531;SDS011;66872;63.142;14.482;2023-06-14T12:45:03;4.05;;;3.65;;
16531;SDS011;66872;63.142;14.482;2023-06-14T12:47:29;3.63;;;3.33;;
16531;SDS011;66872;63.142;14.482;2023-06-14T12:49:55;3.60;;;3.30;;
16531;SDS011;66872;63.142;14.482;2023-06-14T12:52:21;3.92;;;3.63;;
16531;SDS011;66872;63.142;14.482;2023-06-14T12:54:47;4.05;;;3.75;;
16531;SDS011;66872;63.142;14.482;2023-06-14T12:57:12;3.60;;;3.30;;
16531;SDS011;66872;63.142;14.482;2023-06-14T12:59:38;3.58;;;3.28;;
16531;SDS011;66872;63.142;14.482;2023-06-14T13:02:13;3.90;;;3.60;;
16531;SDS011;66872;63.142;14.482;2023-06-14T13:04:40;3.60;;;3.30;;
16531;SDS011;66872;63.142;14.482;2023-06-14T13:07:06;3.80;;;3.50;;
16531;SDS011;66872;63.142;14.482;2023-06-14T13:09:31;3.97;;;3.67;;
16531;SDS011;66872;63.142;14.482;2023-06-14T13:11:57;4.05;;;3.67;;
16531;SDS011;66872;63.142;14.482;2023-06-14T13:14:23;4.00;;;3.70;;
16531;SDS011;66872;63.142;14.482;2023-06-14T13:16:48;3.85;;;3.55;;
16531;SDS011;66872;63.142;14.482;2023-06-14T13:19:14;4.22;;;3.88;;
16531;SDS011;66872;63.142;14.482;2023-06-14T13:21:40;3.80;;;3.50;;
16531;SDS011;66872;63.142;14.482;2023-06-14T13:24:05;3.60;;;3.30;;
16531;SDS011;66872;63.142;14.482;2023-06-14T13:26:32;4.35;;;4.05;;
16531;SDS011;66872;63.142;14.482;2023-06-14T13:28:59;3.47;;;3.22;;
16531;SDS011;66872;63.142;14.482;2023-06-14T13:31:24;3.72;;;3.42;;
16531;SDS011;66872;63.142;14.482;2023-06-14T13:33:50;3.63;;;3.33;;
16531;SDS011;66872;63.142;14.482;2023-06-14T13:36:16;3.75;;;3.45;;
16531;SDS011;66872;63.142;14.482;2023-06-14T13:38:42;4.18;;;3.80;;
16531;SDS011;66872;63.142;14.482;2023-06-14T13:41:07;3.80;;;3.50;;
16531;SDS011;66872;63.142;14.482;2023-06-14T13:43:33;4.07;;;3.78;;
16531;SDS011;66872;63.142;14.482;2023-06-14T13:45:59;4.00;;;3.70;;
16531;SDS011;66872;63.142;14.482;2023-06-14T13:48:25;4.00;;;3.70;;
16531;SDS011;66872;63.142;14.482;2023-06-14T13:50:51;4.13;;;3.83;;
16531;SDS011;66872;63.142;14.482;2023-06-14T13:53:17;4.03;;;3.72;;
16531;SDS011;66872;63.142;14.482;2023-06-14T13:55:43;3.88;;;3.58;;
16531;SDS011;66872;63.142;14.482;2023-06-14T13:58:08;3.88;;;3.58;;
16531;SDS011;66872;63.142;14.482;2023-06-14T14:00:34;4.28;;;3.97;;
16531;SDS011;66872;63.142;14.482;2023-06-14T14:03:05;4.55;;;4.15;;
16531;SDS011;66872;63.142;14.482;2023-06-14T14:05:31;3.70;;;3.40;;
16531;SDS011;66872;63.142;14.482;2023-06-14T14:07:56;4.00;;;3.60;;
16531;SDS011;66872;63.142;14.482;2023-06-14T14:10:23;4.15;;;3.85;;
16531;SDS011;66872;63.142;14.482;2023-06-14T14:12:50;4.10;;;3.80;;
16531;SDS011;66872;63.142;14.482;2023-06-14T14:15:16;4.05;;;3.75;;
16531;SDS011;66872;63.142;14.482;2023-06-14T14:17:42;4.32;;;4.00;;
16531;SDS011;66872;63.142;14.482;2023-06-14T14:20:08;3.80;;;3.50;;
16531;SDS011;66872;63.142;14.482;2023-06-14T14:22:36;3.92;;;3.63;;
16531;SDS011;66872;63.142;14.482;2023-06-14T14:25:02;4.00;;;3.70;;
16531;SDS011;66872;63.142;14.482;2023-06-14T14:27:28;4.10;;;3.80;;
16531;SDS011;66872;63.142;14.482;2023-06-14T14:29:53;4.18;;;3.88;;
16531;SDS011;66872;63.142;14.482;2023-06-14T14:32:19;4.43;;;4.13;;
16531;SDS011;66872;63.142;14.482;2023-06-14T14:34:45;4.18;;;3.88;;
16531;SDS011;66872;63.142;14.482;2023-06-14T14:37:10;3.85;;;3.55;;
16531;SDS011;66872;63.142;14.482;2023-06-14T14:39:38;3.97;;;3.67;;
16531;SDS011;66872;63.142;14.482;2023-06-14T14:42:04;4.20;;;3.80;;
16531;SDS011;66872;63.142;14.482;2023-06-14T14:44:30;4.18;;;3.88;;
16531;SDS011;66872;63.142;14.482;2023-06-14T14:46:56;4.35;;;4.05;;
16531;SDS011;66872;63.142;14.482;2023-06-14T14:49:21;4.30;;;4.00;;
16531;SDS011;66872;63.142;14.482;2023-06-14T14:51:47;4.50;;;4.10;;
16531;SDS011;66872;63.142;14.482;2023-06-14T14:54:12;4.63;;;4.22;;
16531;SDS011;66872;63.142;14.482;2023-06-14T14:56:38;4.70;;;4.30;;
16531;SDS011;66872;63.142;14.482;2023-06-14T14:59:04;4.47;;;4.07;;